createdAt,value
2022-12-22T00:00:08.066Z,93
2022-12-22T00:01:08.276Z,93
2022-12-22T00:02:08.701Z,93
2022-12-22T00:03:09.195Z,93
2022-12-22T00:04:08.531Z,93
2022-12-22T00:05:08.477Z,93
2022-12-22T00:06:08.530Z,93
2022-12-22T00:07:08.141Z,93
2022-12-22T00:08:08.601Z,93
2022-12-22T00:09:11.957Z,93
2022-12-22T00:10:07.728Z,93
2022-12-22T00:12:07.671Z,93
2022-12-22T00:13:08.249Z,93
2022-12-22T00:14:08.515Z,93
2022-12-22T00:15:08.099Z,93
2022-12-22T00:16:07.949Z,93
2022-12-22T00:17:08.336Z,93
2022-12-22T00:18:07.934Z,93
2022-12-22T00:19:08.282Z,93
2022-12-22T00:20:08.487Z,93
2022-12-22T00:21:08.649Z,93
2022-12-22T00:26:07.886Z,93
2022-12-22T00:27:08.362Z,93
2022-12-22T00:28:08.436Z,93
2022-12-22T00:29:08.018Z,93
2022-12-22T00:30:08.349Z,93
2022-12-22T00:31:08.715Z,93
2022-12-22T00:32:08.663Z,93
2022-12-22T00:33:08.073Z,93
2022-12-22T00:34:08.552Z,93
2022-12-22T00:35:07.769Z,93
2022-12-22T00:36:08.306Z,93
2022-12-22T00:37:08.367Z,93
2022-12-22T00:38:07.874Z,93
2022-12-22T00:39:07.785Z,93
2022-12-22T00:40:06.609Z,93
2022-12-22T00:41:08.186Z,93
2022-12-22T00:42:07.622Z,93
2022-12-22T00:43:08.434Z,93
2022-12-22T00:44:08.139Z,93
2022-12-22T00:45:07.976Z,93
2022-12-22T00:46:07.881Z,93
2022-12-22T00:47:08.066Z,93
2022-12-22T00:48:08.171Z,93
2022-12-22T00:49:08.494Z,93
2022-12-22T00:50:08.011Z,93
2022-12-22T00:51:08.534Z,93
2022-12-22T00:52:08.285Z,93
2022-12-22T00:53:08.433Z,93
2022-12-22T00:54:08.323Z,93
2022-12-22T00:55:07.747Z,93
2022-12-22T00:56:08.281Z,93
2022-12-22T00:57:08.033Z,93
2022-12-22T00:58:08.363Z,93
2022-12-22T00:59:07.870Z,93
2022-12-22T01:00:08.358Z,93
2022-12-22T01:01:08.654Z,93
2022-12-22T01:02:08.271Z,93
2022-12-22T01:03:07.783Z,93
2022-12-22T01:04:07.936Z,93
2022-12-22T01:05:08.460Z,93
2022-12-22T01:06:07.896Z,93
2022-12-22T01:07:07.593Z,93
2022-12-22T01:08:07.666Z,93
2022-12-22T01:09:08.260Z,93
2022-12-22T01:10:07.340Z,93
2022-12-22T01:11:07.757Z,93
2022-12-22T01:12:08.117Z,93
2022-12-22T01:13:07.901Z,93
2022-12-22T01:14:08.251Z,93
2022-12-22T01:15:08.493Z,93
2022-12-22T01:16:08.088Z,93
2022-12-22T01:17:07.908Z,93
2022-12-22T01:18:08.732Z,93
2022-12-22T01:19:07.878Z,93
2022-12-22T01:20:08.294Z,93
2022-12-22T01:21:07.923Z,93
2022-12-22T01:22:08.203Z,93
2022-12-22T01:23:07.763Z,93
2022-12-22T01:24:08.274Z,93
2022-12-22T01:25:07.782Z,93
2022-12-22T01:26:08.325Z,93
2022-12-22T01:27:07.946Z,93
2022-12-22T01:28:08.488Z,93
2022-12-22T01:35:07.463Z,93
2022-12-22T01:38:08.509Z,93
2022-12-22T01:39:08.058Z,93
2022-12-22T01:40:07.888Z,93
2022-12-22T01:41:07.594Z,93
2022-12-22T01:42:08.483Z,93
2022-12-22T01:43:08.195Z,93
2022-12-22T01:44:08.325Z,93
2022-12-22T01:45:07.887Z,93
2022-12-22T01:46:08.610Z,93
2022-12-22T01:47:07.797Z,93
2022-12-22T01:48:07.831Z,93
2022-12-22T01:49:08.656Z,93
2022-12-22T01:50:08.395Z,93
2022-12-22T01:51:07.669Z,93
2022-12-22T01:52:08.097Z,93
2022-12-22T02:01:08.759Z,93
2022-12-22T02:02:08.204Z,93
2022-12-22T02:03:08.333Z,93
2022-12-22T02:04:07.865Z,93
2022-12-22T02:05:07.843Z,93
2022-12-22T02:06:07.044Z,93
2022-12-22T02:07:07.984Z,93
2022-12-22T02:08:07.531Z,93
2022-12-22T02:09:08.422Z,93
2022-12-22T02:10:07.799Z,93
2022-12-22T02:11:08.030Z,93
2022-12-22T02:12:07.964Z,93
2022-12-22T02:13:07.455Z,93
2022-12-22T02:14:07.728Z,93
2022-12-22T02:15:08.185Z,93
2022-12-22T02:16:08.185Z,93
2022-12-22T02:17:08.591Z,93
2022-12-22T02:18:08.139Z,93
2022-12-22T02:19:07.716Z,93
2022-12-22T02:20:08.454Z,93
2022-12-22T02:21:07.668Z,93
2022-12-22T02:22:08.262Z,93
2022-12-22T02:23:08.287Z,93
2022-12-22T02:24:07.779Z,93
2022-12-22T02:25:08.054Z,93
2022-12-22T02:26:08.531Z,93
2022-12-22T02:27:08.101Z,93
2022-12-22T02:28:08.432Z,93
2022-12-22T02:29:07.848Z,93
2022-12-22T02:30:07.649Z,93
2022-12-22T02:31:08.170Z,93
2022-12-22T02:32:08.100Z,93
2022-12-22T02:33:12.223Z,93
2022-12-22T02:37:08.233Z,93
2022-12-22T02:38:08.319Z,93
2022-12-22T02:39:08.129Z,93
2022-12-22T02:40:08.444Z,93
2022-12-22T02:41:08.101Z,93
2022-12-22T02:42:07.828Z,93
2022-12-22T02:44:08.376Z,93
2022-12-22T02:45:07.795Z,93
2022-12-22T02:46:08.611Z,93
2022-12-22T02:47:07.476Z,93
2022-12-22T02:48:08.215Z,93
2022-12-22T02:49:07.280Z,93
2022-12-22T02:50:08.576Z,93
2022-12-22T02:51:07.840Z,93
2022-12-22T02:52:07.813Z,93
2022-12-22T02:53:08.589Z,93
2022-12-22T02:55:08.589Z,93
2022-12-22T02:56:08.412Z,93
2022-12-22T02:57:07.907Z,93
2022-12-22T02:58:07.420Z,93
2022-12-22T02:59:07.797Z,93
2022-12-22T03:00:08.410Z,93
2022-12-22T03:01:08.425Z,93
2022-12-22T03:02:09.053Z,93
2022-12-22T03:03:09.016Z,93
2022-12-22T03:04:07.744Z,93
2022-12-22T03:05:08.455Z,93
2022-12-22T03:07:07.712Z,93
2022-12-22T03:08:14.541Z,93
2022-12-22T03:09:07.707Z,93
2022-12-22T03:10:08.633Z,93
2022-12-22T03:11:07.618Z,93
2022-12-22T03:12:08.112Z,93
2022-12-22T03:13:08.251Z,93
2022-12-22T03:14:07.595Z,93
2022-12-22T03:15:08.324Z,93
2022-12-22T03:16:08.733Z,93
2022-12-22T03:18:08.603Z,93
2022-12-22T03:19:08.493Z,93
2022-12-22T03:22:07.364Z,93
2022-12-22T03:23:08.024Z,93
2022-12-22T03:24:07.963Z,93
2022-12-22T03:25:08.009Z,93
2022-12-22T03:26:07.948Z,93
2022-12-22T03:27:07.933Z,93
2022-12-22T03:28:08.102Z,93
2022-12-22T03:29:07.989Z,93
2022-12-22T03:30:08.456Z,93
2022-12-22T03:31:08.124Z,93
2022-12-22T03:32:07.718Z,93
2022-12-22T03:33:08.230Z,93
2022-12-22T03:34:07.768Z,93
2022-12-22T03:35:08.342Z,93
2022-12-22T03:36:07.882Z,93
2022-12-22T03:38:08.335Z,93
2022-12-22T03:39:07.927Z,93
2022-12-22T03:40:08.536Z,93
2022-12-22T03:42:07.847Z,93
2022-12-22T03:43:07.680Z,93
2022-12-22T03:44:08.308Z,93
2022-12-22T03:45:08.265Z,93
2022-12-22T03:46:07.885Z,93
2022-12-22T03:47:08.645Z,93
2022-12-22T03:48:07.607Z,93
2022-12-22T03:49:08.309Z,93
2022-12-22T03:50:08.139Z,93
2022-12-22T03:51:08.199Z,93
2022-12-22T03:52:08.228Z,93
2022-12-22T03:53:07.899Z,93
2022-12-22T03:54:08.385Z,93
2022-12-22T03:55:07.895Z,93
2022-12-22T03:56:14.050Z,93
2022-12-22T03:57:07.656Z,93
2022-12-22T03:58:08.344Z,93
2022-12-22T03:59:07.832Z,93
2022-12-22T04:00:08.261Z,93
2022-12-22T04:01:07.067Z,93
2022-12-22T04:02:09.315Z,93
2022-12-22T04:03:09.119Z,93
2022-12-22T04:05:08.221Z,93
2022-12-22T04:06:07.548Z,93
2022-12-22T04:07:08.176Z,93
2022-12-22T04:08:07.704Z,93
2022-12-22T04:09:08.299Z,93
2022-12-22T04:10:07.986Z,93
2022-12-22T04:12:07.994Z,93
2022-12-22T04:13:08.206Z,93
2022-12-22T04:14:08.495Z,93
2022-12-22T04:15:08.459Z,93
2022-12-22T04:16:08.380Z,93
2022-12-22T04:17:08.431Z,93
2022-12-22T04:18:08.113Z,93
2022-12-22T04:19:08.491Z,93
2022-12-22T04:20:08.107Z,93
2022-12-22T04:21:08.444Z,93
2022-12-22T04:22:08.115Z,93
2022-12-22T04:23:07.992Z,93
2022-12-22T04:24:07.813Z,93
2022-12-22T04:25:08.133Z,93
2022-12-22T04:26:07.760Z,93
2022-12-22T04:27:07.587Z,93
2022-12-22T04:29:07.852Z,93
2022-12-22T04:30:08.258Z,93
2022-12-22T04:31:08.677Z,93
2022-12-22T04:32:08.336Z,93
2022-12-22T04:33:08.325Z,93
2022-12-22T04:34:08.398Z,93
2022-12-22T04:35:07.840Z,93
2022-12-22T04:36:08.371Z,93
2022-12-22T04:37:21.968Z,93
2022-12-22T04:38:07.711Z,93
2022-12-22T04:39:08.438Z,93
2022-12-22T04:41:08.539Z,93
2022-12-22T04:42:08.113Z,93
2022-12-22T04:43:08.512Z,93
2022-12-22T04:44:08.421Z,93
2022-12-22T04:45:08.109Z,93
2022-12-22T04:46:08.638Z,93
2022-12-22T04:47:08.511Z,93
2022-12-22T04:48:08.511Z,93
2022-12-22T04:49:07.731Z,93
2022-12-22T04:50:08.439Z,93
2022-12-22T04:51:07.708Z,93
2022-12-22T04:52:08.130Z,93
2022-12-22T04:53:08.135Z,93
2022-12-22T04:54:07.809Z,93
2022-12-22T04:55:08.338Z,93
2022-12-22T04:56:07.763Z,93
2022-12-22T04:57:07.773Z,93
2022-12-22T04:58:06.857Z,93
2022-12-22T04:59:08.476Z,93
2022-12-22T05:00:08.185Z,93
2022-12-22T05:01:08.799Z,93
2022-12-22T05:02:08.857Z,93
2022-12-22T05:03:08.389Z,93
2022-12-22T05:05:08.161Z,93
2022-12-22T05:06:08.660Z,93
2022-12-22T05:07:08.149Z,93
2022-12-22T05:08:07.943Z,93
2022-12-22T05:09:08.370Z,93
2022-12-22T05:10:07.868Z,93
2022-12-22T05:11:08.291Z,93
2022-12-22T05:12:08.105Z,93
2022-12-22T05:13:07.898Z,93
2022-12-22T05:19:08.357Z,93
2022-12-22T05:20:07.818Z,93
2022-12-22T05:21:07.789Z,93
2022-12-22T05:22:08.367Z,93
2022-12-22T05:23:06.582Z,93
2022-12-22T05:24:07.982Z,93
2022-12-22T05:25:08.243Z,93
2022-12-22T05:28:07.921Z,93
2022-12-22T05:29:08.506Z,93
2022-12-22T05:30:07.894Z,93
2022-12-22T05:31:08.180Z,93
2022-12-22T05:32:07.942Z,93
2022-12-22T05:33:08.604Z,93
2022-12-22T05:34:08.488Z,93
2022-12-22T05:35:07.393Z,93
2022-12-22T05:36:08.028Z,93
2022-12-22T05:37:08.109Z,93
2022-12-22T05:38:08.288Z,93
2022-12-22T05:39:08.104Z,93
2022-12-22T05:40:07.798Z,93
2022-12-22T05:41:10.868Z,93
2022-12-22T05:42:08.554Z,93
2022-12-22T05:43:08.103Z,93
2022-12-22T05:44:07.692Z,93
2022-12-22T05:46:08.604Z,93
2022-12-22T05:47:07.808Z,93
2022-12-22T05:48:07.360Z,93
2022-12-22T05:49:07.776Z,93
2022-12-22T05:51:08.181Z,93
2022-12-22T05:52:08.193Z,93
2022-12-22T05:53:07.770Z,93
2022-12-22T05:54:08.207Z,93
2022-12-22T05:55:07.786Z,93
2022-12-22T05:56:08.344Z,93
2022-12-22T05:57:07.874Z,93
2022-12-22T05:58:08.403Z,93
2022-12-22T05:59:07.844Z,93
2022-12-22T06:00:08.448Z,93
2022-12-22T06:01:07.515Z,93
2022-12-22T06:02:08.691Z,93
2022-12-22T06:03:08.860Z,93
2022-12-22T06:04:09.096Z,93
2022-12-22T06:05:08.506Z,93
2022-12-22T06:06:08.109Z,93
2022-12-22T06:07:08.703Z,93
2022-12-22T06:08:08.137Z,93
2022-12-22T06:09:07.644Z,93
2022-12-22T06:10:17.194Z,93
2022-12-22T06:11:07.636Z,93
2022-12-22T06:14:08.390Z,93
2022-12-22T06:15:08.453Z,93
2022-12-22T06:17:07.740Z,93
2022-12-22T06:18:08.268Z,93
2022-12-22T06:19:08.451Z,93
2022-12-22T06:20:08.103Z,93
2022-12-22T06:21:07.935Z,93
2022-12-22T06:22:08.430Z,93
2022-12-22T06:23:08.093Z,93
2022-12-22T06:24:08.186Z,93
2022-12-22T06:25:09.169Z,93
2022-12-22T06:26:08.370Z,93
2022-12-22T06:27:07.159Z,93
2022-12-22T06:28:08.618Z,93
2022-12-22T06:30:07.828Z,93
2022-12-22T06:31:08.850Z,93
2022-12-22T06:32:07.867Z,93
2022-12-22T06:33:08.208Z,93
2022-12-22T06:34:08.142Z,93
2022-12-22T06:35:07.633Z,93
2022-12-22T06:36:08.151Z,93
2022-12-22T06:37:07.629Z,93
2022-12-22T06:38:08.259Z,93
2022-12-22T06:40:08.349Z,93
2022-12-22T06:41:08.453Z,93
2022-12-22T06:42:08.018Z,93
2022-12-22T06:43:15.170Z,93
2022-12-22T06:44:07.687Z,93
2022-12-22T06:45:08.458Z,93
2022-12-22T06:46:08.572Z,93
2022-12-22T06:47:07.869Z,93
2022-12-22T06:48:08.273Z,93
2022-12-22T06:49:07.805Z,93
2022-12-22T06:50:08.322Z,93
2022-12-22T06:51:07.672Z,93
2022-12-22T06:52:08.226Z,93
2022-12-22T06:53:07.703Z,93
2022-12-22T06:55:08.080Z,93
2022-12-22T06:56:08.616Z,93
2022-12-22T06:57:08.092Z,93
2022-12-22T06:58:08.074Z,93
2022-12-22T06:59:07.601Z,93
2022-12-22T07:00:08.523Z,93
2022-12-22T07:01:08.105Z,93
2022-12-22T07:02:09.361Z,93
2022-12-22T07:03:09.321Z,93
2022-12-22T07:04:08.527Z,93
2022-12-22T07:05:06.760Z,93
2022-12-22T07:06:08.164Z,93
2022-12-22T07:07:07.857Z,93
2022-12-22T07:08:14.730Z,93
2022-12-22T07:09:08.108Z,93
2022-12-22T07:10:08.610Z,93
2022-12-22T07:11:08.592Z,93
2022-12-22T07:12:08.139Z,93
2022-12-22T07:13:08.497Z,93
2022-12-22T07:14:08.018Z,93
2022-12-22T07:15:08.344Z,93
2022-12-22T07:16:09.035Z,93
2022-12-22T07:17:08.104Z,93
2022-12-22T07:18:08.552Z,93
2022-12-22T07:19:08.200Z,93
2022-12-22T07:20:07.717Z,93
2022-12-22T07:21:08.280Z,93
2022-12-22T07:22:08.350Z,93
2022-12-22T07:23:07.999Z,93
2022-12-22T07:24:08.175Z,93
2022-12-22T07:25:07.878Z,93
2022-12-22T07:26:08.289Z,93
2022-12-22T07:27:07.755Z,93
2022-12-22T07:29:08.603Z,93
2022-12-22T07:30:07.605Z,93
2022-12-22T07:31:07.991Z,93
2022-12-22T07:32:07.676Z,93
2022-12-22T07:33:08.423Z,93
2022-12-22T07:34:07.880Z,93
2022-12-22T07:35:12.330Z,93
2022-12-22T07:36:08.231Z,93
2022-12-22T07:37:08.619Z,93
2022-12-22T07:38:08.148Z,93
2022-12-22T07:40:08.147Z,93
2022-12-22T07:41:11.225Z,93
2022-12-22T07:42:07.013Z,93
2022-12-22T07:43:08.562Z,93
2022-12-22T07:44:08.053Z,93
2022-12-22T07:45:08.150Z,93
2022-12-22T07:46:08.167Z,93
2022-12-22T07:47:08.578Z,93
2022-12-22T07:48:07.759Z,93
2022-12-22T07:49:09.391Z,93
2022-12-22T07:50:07.951Z,93
2022-12-22T07:51:07.788Z,93
2022-12-22T07:52:08.465Z,93
2022-12-22T07:53:07.991Z,93
2022-12-22T07:54:06.594Z,93
2022-12-22T07:55:08.748Z,93
2022-12-22T07:56:08.015Z,93
2022-12-22T07:57:08.483Z,93
2022-12-22T07:58:08.242Z,93
2022-12-22T07:59:07.905Z,93
2022-12-22T08:00:07.897Z,93
2022-12-22T08:01:07.816Z,93
2022-12-22T08:02:09.265Z,93
2022-12-22T08:03:08.555Z,93
2022-12-22T08:04:08.515Z,93
2022-12-22T08:05:08.411Z,93
2022-12-22T08:06:07.553Z,93
2022-12-22T08:07:06.727Z,93
2022-12-22T08:08:08.155Z,93
2022-12-22T08:09:07.646Z,93
2022-12-22T08:10:08.346Z,93
2022-12-22T08:11:07.705Z,93
2022-12-22T08:12:08.273Z,93
2022-12-22T08:13:08.180Z,93
2022-12-22T08:15:07.869Z,93
2022-12-22T08:16:08.451Z,93
2022-12-22T08:17:08.425Z,93
2022-12-22T08:18:07.845Z,93
2022-12-22T08:19:08.595Z,93
2022-12-22T08:20:07.836Z,93
2022-12-22T08:21:07.530Z,93
2022-12-22T08:22:07.940Z,93
2022-12-22T08:23:08.477Z,93
2022-12-22T08:24:08.193Z,93
2022-12-22T08:25:07.731Z,94
2022-12-22T08:26:08.158Z,94
2022-12-22T08:27:08.689Z,94
2022-12-22T08:28:08.082Z,94
2022-12-22T08:29:08.755Z,93
2022-12-22T08:30:07.882Z,93
2022-12-22T08:31:08.446Z,93
2022-12-22T08:32:07.664Z,93
2022-12-22T08:33:08.150Z,93
2022-12-22T08:34:07.696Z,93
2022-12-22T08:35:08.128Z,93
2022-12-22T08:36:14.398Z,93
2022-12-22T08:37:08.606Z,93
2022-12-22T08:38:08.053Z,93
2022-12-22T08:39:08.094Z,93
2022-12-22T08:40:07.578Z,93
2022-12-22T08:41:08.114Z,93
2022-12-22T08:42:07.922Z,93
2022-12-22T08:43:08.547Z,93
2022-12-22T08:44:08.116Z,93
2022-12-22T08:45:08.621Z,93
2022-12-22T08:46:08.513Z,93
2022-12-22T08:47:17.043Z,93
2022-12-22T08:48:08.338Z,93
2022-12-22T08:49:07.999Z,93
2022-12-22T08:51:08.329Z,93
2022-12-22T08:52:09.664Z,93
2022-12-22T08:53:14.473Z,93
2022-12-22T08:55:08.279Z,94
2022-12-22T08:56:07.787Z,94
2022-12-22T08:57:08.254Z,94
2022-12-22T08:58:09.381Z,94
2022-12-22T08:59:07.909Z,94
2022-12-22T09:00:07.164Z,94
2022-12-22T09:02:08.852Z,94
2022-12-22T09:03:08.962Z,94
2022-12-22T09:04:07.842Z,94
2022-12-22T09:05:08.502Z,94
2022-12-22T09:06:08.022Z,94
2022-12-22T09:07:08.478Z,94
2022-12-22T09:08:08.117Z,94
2022-12-22T09:09:07.779Z,93
2022-12-22T09:10:08.311Z,93
2022-12-22T09:11:07.700Z,93
2022-12-22T09:12:08.582Z,93
2022-12-22T09:15:08.586Z,93
2022-12-22T09:16:07.970Z,93
2022-12-22T09:17:07.452Z,93
2022-12-22T09:18:07.714Z,93
2022-12-22T09:19:08.305Z,93
2022-12-22T09:20:07.692Z,93
2022-12-22T09:21:08.276Z,93
2022-12-22T09:22:07.939Z,93
2022-12-22T09:23:08.418Z,93
2022-12-22T09:24:08.124Z,93
2022-12-22T09:25:08.548Z,93
2022-12-22T09:26:08.039Z,93
2022-12-22T09:27:07.690Z,93
2022-12-22T09:28:08.236Z,93
2022-12-22T09:29:07.821Z,93
2022-12-22T09:30:08.424Z,93
2022-12-22T09:31:07.849Z,93
2022-12-22T09:32:08.726Z,93
2022-12-22T09:33:08.128Z,93
2022-12-22T09:34:17.451Z,93
2022-12-22T09:35:07.914Z,93
2022-12-22T09:36:08.405Z,93
2022-12-22T09:37:08.008Z,93
2022-12-22T09:38:08.585Z,93
2022-12-22T09:39:08.601Z,93
2022-12-22T09:40:08.183Z,93
2022-12-22T09:41:07.676Z,93
2022-12-22T09:42:08.169Z,93
2022-12-22T09:43:08.424Z,93
2022-12-22T09:44:07.643Z,93
2022-12-22T09:45:09.842Z,93
2022-12-22T09:46:08.868Z,93
2022-12-22T09:47:08.449Z,93
2022-12-22T09:48:07.987Z,92
2022-12-22T09:49:07.630Z,92
2022-12-22T09:50:08.074Z,92
2022-12-22T09:51:08.619Z,92
2022-12-22T09:52:08.215Z,92
2022-12-22T09:53:08.610Z,93
2022-12-22T09:54:08.195Z,92
2022-12-22T09:55:08.521Z,92
2022-12-22T09:56:08.111Z,92
2022-12-22T09:57:08.534Z,92
2022-12-22T09:58:10.425Z,92
2022-12-22T09:59:08.197Z,92
2022-12-22T10:00:07.591Z,92
2022-12-22T10:01:08.038Z,92
2022-12-22T10:02:09.167Z,92
2022-12-22T10:03:08.831Z,92
2022-12-22T10:04:07.932Z,92
2022-12-22T10:05:08.427Z,92
2022-12-22T10:06:07.983Z,92
2022-12-22T10:07:08.390Z,92
2022-12-22T10:08:08.180Z,92
2022-12-22T10:09:53.416Z,92
2022-12-22T10:10:08.446Z,92
2022-12-22T10:11:06.722Z,92
2022-12-22T10:12:08.293Z,92
2022-12-22T10:13:08.488Z,92
2022-12-22T10:14:08.622Z,91
2022-12-22T10:15:07.700Z,91
2022-12-22T10:16:07.963Z,91
2022-12-22T10:17:08.715Z,91
2022-12-22T10:18:07.902Z,92
2022-12-22T10:19:12.573Z,92
2022-12-22T10:21:08.464Z,92
2022-12-22T10:22:08.173Z,92
2022-12-22T10:23:08.402Z,91
2022-12-22T10:25:08.242Z,91
2022-12-22T10:28:07.688Z,91
2022-12-22T10:29:08.216Z,91
2022-12-22T10:30:07.779Z,91
2022-12-22T10:31:08.367Z,91
2022-12-22T10:34:07.690Z,90
2022-12-22T10:35:08.241Z,90
2022-12-22T10:36:07.755Z,90
2022-12-22T10:37:08.309Z,90
2022-12-22T10:38:25.389Z,90
2022-12-22T10:39:08.355Z,90
2022-12-22T10:40:07.383Z,90
2022-12-22T10:41:09.044Z,89
2022-12-22T10:42:08.231Z,89
2022-12-22T10:43:08.183Z,89
2022-12-22T10:47:09.821Z,89
2022-12-22T10:48:08.557Z,89
2022-12-22T10:49:08.065Z,89
2022-12-22T10:50:07.581Z,89
2022-12-22T10:51:08.096Z,89
2022-12-22T10:52:07.789Z,89
2022-12-22T10:53:08.362Z,89
2022-12-22T10:54:08.177Z,89
2022-12-22T10:55:08.589Z,88
2022-12-22T10:56:08.069Z,88
2022-12-22T10:57:07.449Z,88
2022-12-22T10:58:11.878Z,88
2022-12-22T10:59:08.086Z,88
2022-12-22T11:00:08.731Z,88
2022-12-22T11:01:08.390Z,88
2022-12-22T11:02:08.724Z,88
2022-12-22T11:03:08.862Z,88
2022-12-22T11:04:08.865Z,88
2022-12-22T11:05:08.077Z,88
2022-12-22T11:09:39.691Z,88
2022-12-22T11:11:08.413Z,88
2022-12-22T11:14:07.720Z,87
2022-12-22T11:15:08.153Z,87
2022-12-22T11:16:07.867Z,87
2022-12-22T11:17:08.460Z,87
2022-12-22T11:18:08.052Z,87
2022-12-22T11:20:08.282Z,87
2022-12-22T11:21:08.638Z,87
2022-12-22T11:22:08.176Z,87
2022-12-22T11:23:07.857Z,87
2022-12-22T11:24:08.195Z,87
2022-12-22T11:25:07.922Z,87
2022-12-22T11:26:07.249Z,87
2022-12-22T11:27:08.035Z,87
2022-12-22T11:28:08.689Z,87
2022-12-22T11:29:07.840Z,87
2022-12-22T11:30:08.883Z,87
2022-12-22T11:31:08.249Z,87
2022-12-22T11:32:08.328Z,88
2022-12-22T11:33:08.798Z,88
2022-12-22T11:34:08.161Z,88
2022-12-22T11:35:07.728Z,88
2022-12-22T11:36:08.269Z,88
2022-12-22T11:37:07.845Z,88
2022-12-22T11:38:08.076Z,88
2022-12-22T11:39:08.781Z,87
2022-12-22T11:40:07.896Z,88
2022-12-22T11:41:07.083Z,88
2022-12-22T11:42:08.288Z,88
2022-12-22T11:45:07.950Z,88
2022-12-22T11:46:08.586Z,88
2022-12-22T11:47:07.822Z,88
2022-12-22T11:48:08.579Z,88
2022-12-22T11:49:08.009Z,88
2022-12-22T11:51:19.771Z,87
2022-12-22T11:51:29.624Z,88
2022-12-22T11:53:07.853Z,87
2022-12-22T11:54:16.675Z,87
2022-12-22T11:56:07.568Z,87
2022-12-22T11:57:06.848Z,87
2022-12-22T11:58:08.501Z,87
2022-12-22T11:59:07.974Z,87
2022-12-22T12:00:07.795Z,87
2022-12-22T12:01:30.292Z,87
2022-12-22T12:02:08.716Z,87
2022-12-22T12:03:08.407Z,87
2022-12-22T12:04:08.921Z,87
2022-12-22T12:05:08.417Z,87
2022-12-22T12:06:07.980Z,87
2022-12-22T12:08:07.821Z,87
2022-12-22T12:09:08.418Z,87
2022-12-22T12:10:08.114Z,87
2022-12-22T12:11:08.456Z,87
2022-12-22T12:12:07.897Z,87
2022-12-22T12:13:08.487Z,87
2022-12-22T12:14:08.039Z,87
2022-12-22T12:15:08.720Z,87
2022-12-22T12:16:08.621Z,87
2022-12-22T12:17:07.919Z,87
2022-12-22T12:18:08.495Z,87
2022-12-22T12:19:07.936Z,87
2022-12-22T12:20:08.148Z,87
2022-12-22T12:21:07.659Z,87
2022-12-22T12:22:08.206Z,87
2022-12-22T12:23:08.869Z,87
2022-12-22T12:25:07.093Z,88
2022-12-22T12:26:08.521Z,88
2022-12-22T12:27:08.435Z,88
2022-12-22T12:28:07.981Z,88
2022-12-22T12:29:08.568Z,88
2022-12-22T12:30:43.850Z,88
2022-12-22T12:31:08.726Z,88
2022-12-22T12:32:08.717Z,88
2022-12-22T12:33:08.684Z,88
2022-12-22T12:34:08.265Z,88
2022-12-22T12:35:08.502Z,88
2022-12-22T12:36:08.184Z,88
2022-12-22T12:37:07.699Z,88
2022-12-22T12:38:07.552Z,88
2022-12-22T12:39:16.152Z,88
2022-12-22T12:40:08.210Z,89
2022-12-22T12:41:07.727Z,89
2022-12-22T12:42:08.001Z,89
2022-12-22T12:43:16.344Z,89
2022-12-22T12:44:08.007Z,89
2022-12-22T12:46:09.027Z,89
2022-12-22T12:47:08.536Z,89
2022-12-22T12:48:07.670Z,89
2022-12-22T12:49:08.227Z,89
2022-12-22T12:50:07.826Z,89
2022-12-22T12:51:08.204Z,89
2022-12-22T12:52:06.716Z,89
2022-12-22T12:55:08.499Z,89
2022-12-22T12:56:07.979Z,89
2022-12-22T12:57:08.324Z,89
2022-12-22T12:58:08.465Z,89
2022-12-22T12:59:07.851Z,89
2022-12-22T13:00:08.348Z,89
2022-12-22T13:01:07.939Z,89
2022-12-22T13:02:09.199Z,89
2022-12-22T13:03:08.856Z,89
2022-12-22T13:04:11.235Z,89
2022-12-22T13:05:07.846Z,89
2022-12-22T13:06:08.444Z,89
2022-12-22T13:07:08.475Z,89
2022-12-22T13:08:08.096Z,89
2022-12-22T13:09:55.917Z,89
2022-12-22T13:11:08.295Z,90
2022-12-22T13:12:26.938Z,90
2022-12-22T13:13:07.928Z,90
2022-12-22T13:14:08.574Z,90
2022-12-22T13:15:08.343Z,90
2022-12-22T13:16:08.672Z,90
2022-12-22T13:17:08.118Z,90
2022-12-22T13:18:09.057Z,90
2022-12-22T13:19:08.364Z,90
2022-12-22T13:20:08.128Z,90
2022-12-22T13:21:58.213Z,90
2022-12-22T13:22:07.756Z,90
2022-12-22T13:23:07.966Z,90
2022-12-22T13:24:41.307Z,90
2022-12-22T13:26:08.511Z,90
2022-12-22T13:27:08.149Z,90
2022-12-22T13:28:08.573Z,90
2022-12-22T13:29:08.379Z,90
2022-12-22T13:32:08.430Z,90
2022-12-22T13:33:08.494Z,90
2022-12-22T13:34:07.874Z,90
2022-12-22T13:35:51.072Z,90
2022-12-22T13:37:08.468Z,90
2022-12-22T13:38:08.081Z,90
2022-12-22T13:39:08.683Z,90
2022-12-22T13:42:08.430Z,90
2022-12-22T13:43:08.576Z,90
2022-12-22T13:44:08.151Z,90
2022-12-22T13:45:08.387Z,90
2022-12-22T13:46:08.275Z,90
2022-12-22T13:47:08.688Z,90
2022-12-22T13:48:07.937Z,90
2022-12-22T13:49:08.412Z,90
2022-12-22T13:50:16.521Z,90
2022-12-22T13:51:08.635Z,90
2022-12-22T13:52:11.610Z,90
2022-12-22T13:53:08.054Z,90
2022-12-22T13:54:17.248Z,90
2022-12-22T13:55:08.296Z,90
2022-12-22T13:56:07.801Z,90
2022-12-22T13:57:08.441Z,90
2022-12-22T13:58:07.852Z,90
2022-12-22T13:59:08.143Z,90
2022-12-22T14:00:07.459Z,90
2022-12-22T14:01:08.448Z,90
2022-12-22T14:02:08.280Z,90
2022-12-22T14:03:21.582Z,91
2022-12-22T14:04:10.107Z,91
2022-12-22T14:05:10.039Z,91
2022-12-22T14:06:07.969Z,91
2022-12-22T14:07:07.678Z,91
2022-12-22T14:08:08.205Z,91
2022-12-22T14:11:07.693Z,91
2022-12-22T14:12:08.212Z,91
2022-12-22T14:13:07.775Z,91
2022-12-22T14:14:08.395Z,91
2022-12-22T14:15:07.936Z,91
2022-12-22T14:16:08.378Z,91
2022-12-22T14:17:07.516Z,91
2022-12-22T14:18:08.616Z,91
2022-12-22T14:19:08.204Z,91
2022-12-22T14:20:07.924Z,91
2022-12-22T14:21:06.747Z,91
2022-12-22T14:22:07.345Z,91
2022-12-22T14:23:08.675Z,91
2022-12-22T14:24:08.174Z,91
2022-12-22T14:25:07.643Z,91
2022-12-22T14:26:08.567Z,91
2022-12-22T14:27:08.000Z,91
2022-12-22T14:29:08.197Z,91
2022-12-22T14:30:07.687Z,91
2022-12-22T14:31:07.909Z,91
2022-12-22T14:32:08.765Z,91
2022-12-22T14:33:07.959Z,91
2022-12-22T14:34:08.183Z,91
2022-12-22T14:35:07.731Z,91
2022-12-22T14:36:08.213Z,91
2022-12-22T14:37:08.061Z,91
2022-12-22T14:38:08.573Z,91
2022-12-22T14:39:15.414Z,91
2022-12-22T14:40:07.525Z,91
2022-12-22T14:41:08.450Z,91
2022-12-22T14:42:07.976Z,91
2022-12-22T14:43:07.628Z,91
2022-12-22T14:44:08.536Z,91
2022-12-22T14:45:08.155Z,91
2022-12-22T14:46:09.185Z,91
2022-12-22T14:47:08.231Z,91
2022-12-22T14:48:08.345Z,91
2022-12-22T14:49:07.994Z,91
2022-12-22T14:50:08.899Z,91
2022-12-22T14:51:08.303Z,91
2022-12-22T14:52:07.954Z,91
2022-12-22T14:53:08.204Z,91
2022-12-22T14:54:07.892Z,91
2022-12-22T14:55:07.683Z,91
2022-12-22T14:56:07.916Z,91
2022-12-22T14:57:16.308Z,91
2022-12-22T14:58:08.491Z,91
2022-12-22T14:59:08.078Z,91
2022-12-22T15:00:08.755Z,91
2022-12-22T15:01:07.935Z,91
2022-12-22T15:02:09.224Z,91
2022-12-22T15:03:08.722Z,91
2022-12-22T15:04:08.819Z,90
2022-12-22T15:05:08.023Z,90
2022-12-22T15:06:08.584Z,90
2022-12-22T15:07:08.734Z,90
2022-12-22T15:08:16.195Z,90
2022-12-22T15:09:08.970Z,90
2022-12-22T15:10:22.323Z,90
2022-12-22T15:11:07.797Z,90
2022-12-22T15:12:08.407Z,90
2022-12-22T15:13:07.940Z,90
2022-12-22T15:14:08.427Z,90
2022-12-22T15:16:08.236Z,90
2022-12-22T15:17:07.943Z,90
2022-12-22T15:18:08.292Z,90
2022-12-22T15:19:08.385Z,90
2022-12-22T15:20:08.074Z,90
2022-12-22T15:21:08.185Z,90
2022-12-22T15:22:07.478Z,90
2022-12-22T15:23:08.180Z,90
2022-12-22T15:24:07.563Z,90
2022-12-22T15:25:08.091Z,90
2022-12-22T15:26:08.405Z,90
2022-12-22T15:27:07.979Z,90
2022-12-22T15:28:08.227Z,90
2022-12-22T15:29:07.702Z,90
2022-12-22T15:30:08.240Z,90
2022-12-22T15:31:08.549Z,90
2022-12-22T15:33:08.254Z,90
2022-12-22T15:34:08.088Z,90
2022-12-22T15:35:06.943Z,90
2022-12-22T15:36:07.342Z,90
2022-12-22T15:37:08.141Z,90
2022-12-22T15:38:07.808Z,90
2022-12-22T15:39:07.855Z,90
2022-12-22T15:40:08.304Z,90
2022-12-22T15:41:07.843Z,90
2022-12-22T15:42:08.393Z,90
2022-12-22T15:43:13.024Z,90
2022-12-22T15:44:07.206Z,90
2022-12-22T15:45:07.708Z,90
2022-12-22T15:46:08.451Z,90
2022-12-22T15:47:08.240Z,90
2022-12-22T15:48:07.788Z,90
2022-12-22T15:49:08.061Z,90
2022-12-22T15:50:08.644Z,90
2022-12-22T15:51:06.785Z,90
2022-12-22T15:52:07.954Z,90